UAE4224 OMDB-OPKC
Flight info
| Callsign | UAE4224 |
|---|---|
| Flight time | 1h 35m |
| Altitude | 39000 |
| Route | IVURO M428 TARBO Z440 DAMUM B524 ALPOR G216 LAKIV |
| Aircraft | B77W/H-SDE1E2E3FGHIJ2J3J4J5M1RWXY/LB1D1 |
Departure
| Time | 2026-05-09 14:30 |
|---|---|
| Airport | Dubai International Airport (OMDB) |
Arrival
| Time | 2026-05-09 16:05 |
|---|---|
| Airport | Jinnah International Airport (OPKC) |
| Time | Latitude | Longitude | Altitude | Speed | Heading |
|---|---|---|---|---|---|
| 2026-05-09 13:41 | 25.25194 | 55.35718 | 30 ft | 0 kts | 211° |
| 2026-05-09 14:12 | 25.25207 | 55.35726 | 30 ft | 2 kts | 211° |
| 2026-05-09 14:12 | 25.25219 | 55.35735 | 30 ft | 2 kts | 211° |
| 2026-05-09 14:13 | 25.25232 | 55.35744 | 29 ft | 2 kts | 218° |
| 2026-05-09 14:14 | 25.25247 | 55.35842 | 29 ft | 1 kts | 302° |
| 2026-05-09 14:15 | 25.25246 | 55.35843 | 29 ft | 0 kts | 302° |
| 2026-05-09 14:21 | 25.25247 | 55.35842 | 29 ft | 0 kts | 302° |
| 2026-05-09 14:21 | 25.25250 | 55.35838 | 29 ft | 0 kts | 319° |
| 2026-05-09 14:21 | 25.25252 | 55.35837 | 29 ft | 0 kts | 330° |
| 2026-05-09 14:21 | 25.25272 | 55.35840 | 29 ft | 8 kts | 18° |
| 2026-05-09 14:22 | 25.25318 | 55.35859 | 29 ft | 5 kts | 348° |
| 2026-05-09 14:22 | 25.25345 | 55.35839 | 29 ft | 4 kts | 308° |
| 2026-05-09 14:22 | 25.25364 | 55.35808 | 29 ft | 4 kts | 302° |
| 2026-05-09 14:22 | 25.25382 | 55.35777 | 29 ft | 4 kts | 300° |
| 2026-05-09 14:23 | 25.25425 | 55.35735 | 29 ft | 9 kts | 349° |
| 2026-05-09 14:23 | 25.25463 | 55.35745 | 29 ft | 2 kts | 27° |
| 2026-05-09 14:23 | 25.25479 | 55.35754 | 29 ft | 2 kts | 26° |
| 2026-05-09 14:23 | 25.25491 | 55.35761 | 29 ft | 0 kts | 27° |
| 2026-05-09 14:24 | 25.25523 | 55.35782 | 28 ft | 12 kts | 31° |
| 2026-05-09 14:24 | 25.25635 | 55.35857 | 28 ft | 21 kts | 30° |
| 2026-05-09 14:24 | 25.25730 | 55.35926 | 28 ft | 12 kts | 49° |
| 2026-05-09 14:24 | 25.25732 | 55.35992 | 28 ft | 7 kts | 121° |
| 2026-05-09 14:25 | 25.25691 | 55.36064 | 28 ft | 14 kts | 121° |
| 2026-05-09 14:25 | 25.25625 | 55.36183 | 28 ft | 21 kts | 121° |
| 2026-05-09 14:25 | 25.25542 | 55.36332 | 28 ft | 22 kts | 121° |
| 2026-05-09 14:25 | 25.25462 | 55.36475 | 28 ft | 21 kts | 121° |
| 2026-05-09 14:26 | 25.25387 | 55.36611 | 28 ft | 20 kts | 121° |
| 2026-05-09 14:26 | 25.25316 | 55.36739 | 29 ft | 18 kts | 121° |
| 2026-05-09 14:26 | 25.25248 | 55.36859 | 29 ft | 17 kts | 121° |
| 2026-05-09 14:26 | 25.25179 | 55.36985 | 29 ft | 21 kts | 122° |
| 2026-05-09 14:27 | 25.25100 | 55.37127 | 30 ft | 20 kts | 120° |
| 2026-05-09 14:27 | 25.25020 | 55.37273 | 31 ft | 25 kts | 121° |
| 2026-05-09 14:27 | 25.24919 | 55.37455 | 32 ft | 28 kts | 121° |
| 2026-05-09 14:27 | 25.24813 | 55.37647 | 34 ft | 29 kts | 120° |
| 2026-05-09 14:28 | 25.24707 | 55.37838 | 36 ft | 21 kts | 123° |
| 2026-05-09 14:28 | 25.24666 | 55.37918 | 37 ft | 7 kts | 97° |
| 2026-05-09 14:28 | 25.24690 | 55.37964 | 37 ft | 7 kts | 32° |
| 2026-05-09 14:28 | 25.24734 | 55.37993 | 37 ft | 7 kts | 31° |
| 2026-05-09 14:29 | 25.24781 | 55.38013 | 37 ft | 7 kts | 360° |
| 2026-05-09 14:29 | 25.24828 | 55.37988 | 36 ft | 7 kts | 311° |
| 2026-05-09 14:29 | 25.24884 | 55.37886 | 35 ft | 34 kts | 301° |
| 2026-05-09 14:29 | 25.25148 | 55.37411 | 31 ft | 109 kts | 301° |
| 2026-05-09 14:30 | 25.25666 | 55.36482 | 84 ft | 166 kts | 301° |
| 2026-05-09 14:30 | 25.26287 | 55.35349 | 752 ft | 172 kts | 300° |
| 2026-05-09 14:30 | 25.26891 | 55.34198 | 1485 ft | 179 kts | 301° |
| 2026-05-09 14:30 | 25.27553 | 55.32967 | 2037 ft | 192 kts | 302° |
| 2026-05-09 14:31 | 25.28292 | 55.31673 | 2578 ft | 206 kts | 303° |
| 2026-05-09 14:31 | 25.29147 | 55.30387 | 3223 ft | 215 kts | 317° |
| 2026-05-09 14:31 | 25.30464 | 55.29586 | 3809 ft | 223 kts | 343° |
| 2026-05-09 14:31 | 25.32040 | 55.29467 | 3976 ft | 228 kts | 358° |
| 2026-05-09 14:32 | 25.33676 | 55.29545 | 4197 ft | 243 kts | 359° |
| 2026-05-09 14:32 | 25.35312 | 55.29605 | 5250 ft | 233 kts | 358° |
| 2026-05-09 14:32 | 25.36924 | 55.29648 | 6065 ft | 235 kts | 358° |
| 2026-05-09 14:32 | 25.38562 | 55.29717 | 6716 ft | 243 kts | 6° |
| 2026-05-09 14:33 | 25.40158 | 55.30428 | 7322 ft | 258 kts | 34° |
| 2026-05-09 14:33 | 25.41477 | 55.31898 | 7700 ft | 281 kts | 48° |
| 2026-05-09 14:33 | 25.42735 | 55.33654 | 8113 ft | 299 kts | 50° |
| 2026-05-09 14:33 | 25.44038 | 55.35475 | 8778 ft | 306 kts | 49° |
| 2026-05-09 14:34 | 25.45383 | 55.37329 | 9433 ft | 314 kts | 50° |
| 2026-05-09 14:34 | 25.46758 | 55.39212 | 10229 ft | 316 kts | 50° |
| 2026-05-09 14:34 | 25.48185 | 55.41162 | 10720 ft | 332 kts | 50° |
| 2026-05-09 14:34 | 25.49590 | 55.43249 | 11192 ft | 349 kts | 58° |
| 2026-05-09 14:35 | 25.50719 | 55.45677 | 11682 ft | 365 kts | 69° |
| 2026-05-09 14:35 | 25.51467 | 55.48439 | 12241 ft | 378 kts | 81° |
| 2026-05-09 14:35 | 25.51732 | 55.51341 | 12806 ft | 389 kts | 93° |
| 2026-05-09 14:35 | 25.51469 | 55.54381 | 13367 ft | 401 kts | 104° |
| 2026-05-09 14:36 | 25.50634 | 55.57341 | 14071 ft | 407 kts | 116° |
| 2026-05-09 14:36 | 25.49249 | 55.60058 | 15010 ft | 408 kts | 128° |
| 2026-05-09 14:36 | 25.47527 | 55.62524 | 16012 ft | 411 kts | 130° |
| 2026-05-09 14:36 | 25.45767 | 55.65070 | 16941 ft | 417 kts | 129° |
| 2026-05-09 14:37 | 25.44062 | 55.67713 | 17804 ft | 425 kts | 125° |
| 2026-05-09 14:37 | 25.42675 | 55.70598 | 18596 ft | 435 kts | 115° |
| 2026-05-09 14:37 | 25.41714 | 55.73809 | 19366 ft | 446 kts | 107° |
| 2026-05-09 14:37 | 25.40963 | 55.77214 | 20166 ft | 453 kts | 105° |
| 2026-05-09 14:38 | 25.40235 | 55.80623 | 20938 ft | 460 kts | 105° |
| 2026-05-09 14:38 | 25.39492 | 55.84101 | 21735 ft | 466 kts | 105° |
| 2026-05-09 14:38 | 25.38742 | 55.87611 | 22498 ft | 472 kts | 105° |
| 2026-05-09 14:38 | 25.37984 | 55.91157 | 23353 ft | 476 kts | 105° |
| 2026-05-09 14:39 | 25.37226 | 55.94698 | 24148 ft | 480 kts | 105° |
| 2026-05-09 14:39 | 25.36446 | 55.98340 | 24877 ft | 485 kts | 105° |
| 2026-05-09 14:39 | 25.35666 | 56.01976 | 25626 ft | 490 kts | 105° |
| 2026-05-09 14:39 | 25.34876 | 56.05655 | 26385 ft | 494 kts | 105° |
| 2026-05-09 14:40 | 25.34078 | 56.09366 | 27114 ft | 498 kts | 105° |
| 2026-05-09 14:40 | 25.33276 | 56.13095 | 27773 ft | 504 kts | 105° |
| 2026-05-09 14:40 | 25.32317 | 56.16810 | 28468 ft | 506 kts | 111° |
| 2026-05-09 14:40 | 25.31142 | 56.20461 | 29131 ft | 510 kts | 112° |
| 2026-05-09 14:41 | 25.29913 | 56.24195 | 29908 ft | 513 kts | 112° |
| 2026-05-09 14:41 | 25.28680 | 56.27938 | 30809 ft | 512 kts | 112° |
| 2026-05-09 14:41 | 25.27493 | 56.31539 | 31725 ft | 509 kts | 112° |
| 2026-05-09 14:41 | 25.26303 | 56.35149 | 32571 ft | 508 kts | 112° |
| 2026-05-09 14:42 | 25.25091 | 56.38824 | 33373 ft | 508 kts | 112° |
| 2026-05-09 14:42 | 25.23879 | 56.42491 | 34119 ft | 508 kts | 112° |
| 2026-05-09 14:42 | 25.22682 | 56.46109 | 34908 ft | 507 kts | 112° |
| 2026-05-09 14:42 | 25.21473 | 56.49761 | 35671 ft | 506 kts | 112° |
| 2026-05-09 14:43 | 25.20261 | 56.53420 | 36375 ft | 505 kts | 112° |
| 2026-05-09 14:43 | 25.19073 | 56.57003 | 36978 ft | 505 kts | 112° |
| 2026-05-09 14:43 | 25.17820 | 56.60636 | 37487 ft | 505 kts | 115° |
| 2026-05-09 14:43 | 25.16468 | 56.64213 | 37962 ft | 506 kts | 115° |
| 2026-05-09 14:44 | 25.15093 | 56.67819 | 38436 ft | 506 kts | 116° |
| 2026-05-09 14:44 | 25.13734 | 56.71389 | 38779 ft | 508 kts | 116° |
| 2026-05-09 14:44 | 25.11034 | 56.78495 | 38763 ft | 506 kts | 116° |
| 2026-05-09 14:45 | 25.08357 | 56.85551 | 38768 ft | 507 kts | 116° |
| 2026-05-09 14:45 | 25.05669 | 56.92633 | 38769 ft | 507 kts | 115° |
| 2026-05-09 14:46 | 25.02944 | 56.99806 | 38761 ft | 508 kts | 116° |
| 2026-05-09 14:46 | 25.00246 | 57.06898 | 38768 ft | 508 kts | 116° |
| 2026-05-09 14:47 | 24.97512 | 57.14076 | 38763 ft | 507 kts | 115° |
| 2026-05-09 14:47 | 24.94794 | 57.21200 | 38756 ft | 505 kts | 115° |
| 2026-05-09 14:48 | 24.92078 | 57.28310 | 38766 ft | 503 kts | 115° |
| 2026-05-09 14:48 | 24.89387 | 57.35342 | 38773 ft | 505 kts | 115° |
| 2026-05-09 14:49 | 24.86677 | 57.42410 | 38775 ft | 504 kts | 115° |
| 2026-05-09 14:49 | 24.83934 | 57.49553 | 38768 ft | 504 kts | 115° |
| 2026-05-09 14:50 | 24.81223 | 57.56603 | 38760 ft | 503 kts | 115° |
| 2026-05-09 14:50 | 24.78502 | 57.63665 | 38766 ft | 504 kts | 115° |
| 2026-05-09 14:51 | 24.75827 | 57.70596 | 38758 ft | 503 kts | 116° |
| 2026-05-09 14:51 | 24.73303 | 57.77694 | 38770 ft | 506 kts | 107° |
| 2026-05-09 14:52 | 24.72103 | 57.85223 | 38768 ft | 509 kts | 99° |
| 2026-05-09 14:52 | 24.71156 | 57.92872 | 38770 ft | 508 kts | 99° |
| 2026-05-09 14:53 | 24.70199 | 58.00510 | 38778 ft | 508 kts | 99° |
| 2026-05-09 14:53 | 24.69234 | 58.08155 | 38772 ft | 507 kts | 99° |
| 2026-05-09 14:54 | 24.68259 | 58.15830 | 38773 ft | 510 kts | 99° |
| 2026-05-09 14:54 | 24.67277 | 58.23517 | 38769 ft | 508 kts | 99° |
| 2026-05-09 14:55 | 24.66294 | 58.31173 | 38770 ft | 510 kts | 99° |
| 2026-05-09 14:55 | 24.65308 | 58.38815 | 38769 ft | 510 kts | 99° |
| 2026-05-09 14:56 | 24.64313 | 58.46497 | 38767 ft | 510 kts | 99° |
| 2026-05-09 14:56 | 24.63320 | 58.54134 | 38758 ft | 510 kts | 99° |
| 2026-05-09 14:57 | 24.62314 | 58.61832 | 38769 ft | 511 kts | 99° |
| 2026-05-09 14:57 | 24.61313 | 58.69465 | 38758 ft | 511 kts | 100° |
| 2026-05-09 14:58 | 24.60296 | 58.77195 | 38752 ft | 512 kts | 100° |
| 2026-05-09 14:58 | 24.59275 | 58.84915 | 38752 ft | 512 kts | 100° |
| 2026-05-09 14:59 | 24.58251 | 58.92630 | 38750 ft | 512 kts | 100° |
| 2026-05-09 14:59 | 24.57218 | 59.00378 | 38751 ft | 511 kts | 100° |
| 2026-05-09 15:00 | 24.56183 | 59.08113 | 38754 ft | 513 kts | 100° |
| 2026-05-09 15:00 | 24.55143 | 59.15852 | 38751 ft | 512 kts | 100° |
| 2026-05-09 15:01 | 24.53181 | 59.27329 | 38753 ft | 511 kts | 105° |
| 2026-05-09 15:02 | 24.51556 | 59.34930 | 38760 ft | 510 kts | 105° |
| 2026-05-09 15:02 | 24.49941 | 59.42465 | 38768 ft | 512 kts | 105° |
| 2026-05-09 15:03 | 24.48332 | 59.49968 | 38780 ft | 512 kts | 105° |
| 2026-05-09 15:03 | 24.46719 | 59.57466 | 38780 ft | 510 kts | 105° |
| 2026-05-09 15:04 | 24.45074 | 59.65097 | 38780 ft | 511 kts | 105° |
| 2026-05-09 15:06 | 24.38575 | 59.95066 | 38773 ft | 510 kts | 105° |
| 2026-05-09 15:06 | 24.36937 | 60.02575 | 38774 ft | 510 kts | 105° |
| 2026-05-09 15:07 | 24.35287 | 60.10118 | 38773 ft | 510 kts | 105° |
| 2026-05-09 15:07 | 24.33632 | 60.17668 | 38770 ft | 507 kts | 105° |
| 2026-05-09 15:08 | 24.31999 | 60.25103 | 38768 ft | 506 kts | 105° |
| 2026-05-09 15:08 | 24.29526 | 60.36330 | 38769 ft | 506 kts | 105° |
| 2026-05-09 15:10 | 24.22949 | 60.65979 | 38776 ft | 503 kts | 105° |
| 2026-05-09 15:11 | 24.21298 | 60.73375 | 38776 ft | 503 kts | 105° |
| 2026-05-09 15:11 | 24.19653 | 60.80742 | 38775 ft | 504 kts | 105° |
| 2026-05-09 15:12 | 24.18022 | 60.88038 | 38778 ft | 502 kts | 105° |
| 2026-05-09 15:12 | 24.16368 | 60.95415 | 38782 ft | 501 kts | 105° |
| 2026-05-09 15:13 | 24.14734 | 61.02688 | 38784 ft | 499 kts | 105° |
| 2026-05-09 15:13 | 24.13069 | 61.10081 | 38788 ft | 502 kts | 105° |
| 2026-05-09 15:14 | 24.11420 | 61.17382 | 38786 ft | 499 kts | 105° |
| 2026-05-09 15:14 | 24.09747 | 61.24778 | 38786 ft | 500 kts | 105° |
| 2026-05-09 15:15 | 24.08499 | 61.30937 | 38777 ft | 500 kts | 98° |
| 2026-05-09 15:15 | 24.08328 | 61.36005 | 38770 ft | 502 kts | 86° |
| 2026-05-09 15:15 | 24.08739 | 61.39768 | 38780 ft | 503 kts | 81° |
| 2026-05-09 15:16 | 24.09847 | 61.47321 | 38767 ft | 502 kts | 81° |
| 2026-05-09 15:16 | 24.10958 | 61.54865 | 38769 ft | 503 kts | 81° |
| 2026-05-09 15:17 | 24.12057 | 61.62379 | 38764 ft | 503 kts | 81° |
| 2026-05-09 15:17 | 24.13151 | 61.69896 | 38765 ft | 503 kts | 81° |
| 2026-05-09 15:18 | 24.14233 | 61.77358 | 38765 ft | 501 kts | 81° |
| 2026-05-09 15:18 | 24.15297 | 61.84942 | 38774 ft | 501 kts | 81° |
| 2026-05-09 15:19 | 24.16314 | 61.92444 | 38786 ft | 502 kts | 81° |
| 2026-05-09 15:19 | 24.17334 | 61.99990 | 38781 ft | 500 kts | 81° |
| 2026-05-09 15:20 | 24.18845 | 62.11201 | 38780 ft | 501 kts | 81° |
| 2026-05-09 15:21 | 24.19857 | 62.18740 | 38785 ft | 503 kts | 81° |
| 2026-05-09 15:21 | 24.20871 | 62.26321 | 38784 ft | 501 kts | 81° |
| 2026-05-09 15:22 | 24.21871 | 62.33829 | 38786 ft | 501 kts | 81° |
| 2026-05-09 15:22 | 24.22871 | 62.41362 | 38791 ft | 502 kts | 81° |
| 2026-05-09 15:23 | 24.23872 | 62.48929 | 38795 ft | 501 kts | 81° |
| 2026-05-09 15:23 | 24.24861 | 62.56437 | 38798 ft | 501 kts | 81° |
| 2026-05-09 15:24 | 24.25852 | 62.63992 | 38804 ft | 502 kts | 81° |
| 2026-05-09 15:24 | 24.26841 | 62.71555 | 38799 ft | 501 kts | 81° |
| 2026-05-09 15:25 | 24.27820 | 62.79077 | 38800 ft | 502 kts | 81° |
| 2026-05-09 15:25 | 24.28800 | 62.86635 | 38800 ft | 501 kts | 81° |
| 2026-05-09 15:26 | 24.30243 | 62.97817 | 38805 ft | 501 kts | 81° |
| 2026-05-09 15:26 | 24.31200 | 63.05268 | 38804 ft | 501 kts | 81° |
| 2026-05-09 15:27 | 24.32163 | 63.12797 | 38810 ft | 502 kts | 81° |
| 2026-05-09 15:27 | 24.33120 | 63.20314 | 38810 ft | 501 kts | 81° |
| 2026-05-09 15:28 | 24.34080 | 63.27874 | 38812 ft | 502 kts | 81° |
| 2026-05-09 15:28 | 24.35042 | 63.35487 | 38813 ft | 501 kts | 81° |
| 2026-05-09 15:29 | 24.35989 | 63.43012 | 38814 ft | 501 kts | 81° |
| 2026-05-09 15:29 | 24.36935 | 63.50561 | 38813 ft | 501 kts | 81° |
| 2026-05-09 15:30 | 24.37869 | 63.58044 | 38816 ft | 501 kts | 81° |
| 2026-05-09 15:30 | 24.38797 | 63.65514 | 38807 ft | 501 kts | 81° |
| 2026-05-09 15:31 | 24.39725 | 63.73009 | 38798 ft | 501 kts | 81° |
| 2026-05-09 15:31 | 24.40634 | 63.80381 | 38802 ft | 503 kts | 82° |
| 2026-05-09 15:32 | 24.41557 | 63.87899 | 38802 ft | 502 kts | 81° |
| 2026-05-09 15:32 | 24.42465 | 63.95328 | 38805 ft | 503 kts | 81° |
| 2026-05-09 15:33 | 24.43387 | 64.02897 | 38805 ft | 502 kts | 81° |
| 2026-05-09 15:33 | 24.44296 | 64.10391 | 38807 ft | 501 kts | 81° |
| 2026-05-09 15:34 | 24.45201 | 64.17889 | 38809 ft | 501 kts | 81° |
| 2026-05-09 15:34 | 24.46101 | 64.25372 | 38809 ft | 501 kts | 81° |
| 2026-05-09 15:35 | 24.47001 | 64.32894 | 38813 ft | 501 kts | 81° |
| 2026-05-09 15:35 | 24.47888 | 64.40333 | 38813 ft | 501 kts | 81° |
| 2026-05-09 15:36 | 24.48791 | 64.47935 | 38815 ft | 503 kts | 81° |
| 2026-05-09 15:36 | 24.49690 | 64.55550 | 38816 ft | 501 kts | 81° |
| 2026-05-09 15:37 | 24.50582 | 64.63129 | 38816 ft | 504 kts | 81° |
| 2026-05-09 15:37 | 24.51436 | 64.70418 | 38811 ft | 502 kts | 82° |
| 2026-05-09 15:38 | 24.52323 | 64.78022 | 38813 ft | 502 kts | 82° |
| 2026-05-09 15:38 | 24.53157 | 64.85522 | 38811 ft | 501 kts | 84° |
| 2026-05-09 15:39 | 24.53740 | 64.93130 | 38815 ft | 501 kts | 84° |
| 2026-05-09 15:39 | 24.54309 | 65.00635 | 38502 ft | 498 kts | 84° |
| 2026-05-09 15:40 | 24.54599 | 65.04419 | 38069 ft | 502 kts | 84° |
| 2026-05-09 15:40 | 24.54893 | 65.08254 | 37720 ft | 504 kts | 84° |
| 2026-05-09 15:40 | 24.55185 | 65.12064 | 37472 ft | 505 kts | 84° |
| 2026-05-09 15:40 | 24.55477 | 65.15871 | 37309 ft | 504 kts | 84° |
| 2026-05-09 15:41 | 24.55769 | 65.19695 | 37148 ft | 503 kts | 84° |
| 2026-05-09 15:41 | 24.56056 | 65.23450 | 36980 ft | 503 kts | 84° |
| 2026-05-09 15:41 | 24.56346 | 65.27251 | 36782 ft | 503 kts | 84° |
| 2026-05-09 15:41 | 24.56636 | 65.31056 | 36581 ft | 504 kts | 84° |
| 2026-05-09 15:42 | 24.56922 | 65.34830 | 36436 ft | 503 kts | 84° |
| 2026-05-09 15:42 | 24.57209 | 65.38619 | 36295 ft | 503 kts | 84° |
| 2026-05-09 15:42 | 24.57495 | 65.42413 | 36154 ft | 502 kts | 84° |
| 2026-05-09 15:42 | 24.57772 | 65.46097 | 36015 ft | 502 kts | 84° |
| 2026-05-09 15:43 | 24.58056 | 65.49898 | 35862 ft | 502 kts | 84° |
| 2026-05-09 15:43 | 24.58338 | 65.53667 | 35707 ft | 501 kts | 84° |
| 2026-05-09 15:43 | 24.58620 | 65.57455 | 35101 ft | 499 kts | 84° |
| 2026-05-09 15:43 | 24.58903 | 65.61271 | 34087 ft | 503 kts | 84° |
| 2026-05-09 15:44 | 24.59185 | 65.65079 | 33169 ft | 506 kts | 84° |
| 2026-05-09 15:44 | 24.59467 | 65.68892 | 32318 ft | 507 kts | 84° |
| 2026-05-09 15:44 | 24.59748 | 65.72732 | 31433 ft | 508 kts | 84° |
| 2026-05-09 15:44 | 24.60028 | 65.76550 | 30546 ft | 510 kts | 84° |
| 2026-05-09 15:45 | 24.60311 | 65.80437 | 29979 ft | 503 kts | 84° |
| 2026-05-09 15:45 | 24.60585 | 65.84212 | 29490 ft | 496 kts | 84° |
| 2026-05-09 15:45 | 24.60855 | 65.87945 | 28940 ft | 491 kts | 84° |
| 2026-05-09 15:45 | 24.61122 | 65.91634 | 28365 ft | 486 kts | 84° |
| 2026-05-09 15:46 | 24.61387 | 65.95326 | 27778 ft | 482 kts | 84° |
| 2026-05-09 15:46 | 24.61647 | 65.98943 | 27184 ft | 478 kts | 84° |
| 2026-05-09 15:46 | 24.61905 | 66.02556 | 26596 ft | 473 kts | 84° |
| 2026-05-09 15:46 | 24.62159 | 66.06126 | 26001 ft | 469 kts | 84° |
| 2026-05-09 15:47 | 24.62410 | 66.09663 | 25407 ft | 465 kts | 84° |
| 2026-05-09 15:47 | 24.62663 | 66.13234 | 24803 ft | 461 kts | 84° |
| 2026-05-09 15:47 | 24.62907 | 66.16690 | 24205 ft | 457 kts | 84° |
| 2026-05-09 15:47 | 24.63148 | 66.20122 | 23616 ft | 453 kts | 84° |
| 2026-05-09 15:48 | 24.63388 | 66.23549 | 23021 ft | 449 kts | 84° |
| 2026-05-09 15:48 | 24.63628 | 66.26980 | 22394 ft | 445 kts | 84° |
| 2026-05-09 15:48 | 24.63859 | 66.30311 | 21821 ft | 436 kts | 84° |
| 2026-05-09 15:48 | 24.64087 | 66.33586 | 21246 ft | 428 kts | 84° |
| 2026-05-09 15:49 | 24.64310 | 66.36822 | 20654 ft | 420 kts | 84° |
| 2026-05-09 15:49 | 24.64528 | 66.39982 | 20064 ft | 412 kts | 84° |
| 2026-05-09 15:49 | 24.64743 | 66.43113 | 19458 ft | 405 kts | 84° |
| 2026-05-09 15:49 | 24.64951 | 66.46140 | 18874 ft | 398 kts | 84° |
| 2026-05-09 15:50 | 24.65155 | 66.49130 | 18332 ft | 392 kts | 84° |
| 2026-05-09 15:50 | 24.65358 | 66.52100 | 17738 ft | 391 kts | 84° |
| 2026-05-09 15:50 | 24.65561 | 66.55081 | 17151 ft | 389 kts | 84° |
| 2026-05-09 15:50 | 24.65759 | 66.58015 | 16600 ft | 386 kts | 84° |
| 2026-05-09 15:51 | 24.65958 | 66.60951 | 16217 ft | 380 kts | 84° |
| 2026-05-09 15:51 | 24.66154 | 66.63843 | 15867 ft | 381 kts | 84° |
| 2026-05-09 15:51 | 24.66349 | 66.66737 | 15494 ft | 379 kts | 84° |
| 2026-05-09 15:51 | 24.66540 | 66.69595 | 15118 ft | 376 kts | 84° |
| 2026-05-09 15:52 | 24.66921 | 66.75279 | 14363 ft | 370 kts | 84° |
| 2026-05-09 15:52 | 24.67106 | 66.78061 | 13990 ft | 368 kts | 83° |
| 2026-05-09 15:52 | 24.67292 | 66.80862 | 13618 ft | 366 kts | 83° |
| 2026-05-09 15:53 | 24.67477 | 66.83656 | 13247 ft | 364 kts | 83° |
| 2026-05-09 15:53 | 24.67658 | 66.86398 | 12873 ft | 362 kts | 83° |
| 2026-05-09 15:53 | 24.67841 | 66.89160 | 12503 ft | 360 kts | 83° |
| 2026-05-09 15:53 | 24.68021 | 66.91911 | 12143 ft | 360 kts | 84° |
| 2026-05-09 15:54 | 24.68203 | 66.94681 | 11774 ft | 360 kts | 84° |
| 2026-05-09 15:54 | 24.68383 | 66.97436 | 11396 ft | 359 kts | 84° |
| 2026-05-09 15:54 | 24.68560 | 67.00149 | 11041 ft | 358 kts | 84° |
| 2026-05-09 15:54 | 24.68759 | 67.02875 | 10691 ft | 358 kts | 80° |
| 2026-05-09 15:55 | 24.69385 | 67.05481 | 10136 ft | 348 kts | 66° |
| 2026-05-09 15:55 | 24.70489 | 67.07819 | 9421 ft | 339 kts | 59° |
| 2026-05-09 15:55 | 24.71663 | 67.09994 | 8934 ft | 325 kts | 59° |
| 2026-05-09 15:55 | 24.72804 | 67.12093 | 8577 ft | 310 kts | 59° |
| 2026-05-09 15:56 | 24.73866 | 67.14050 | 8310 ft | 295 kts | 59° |
| 2026-05-09 15:56 | 24.74894 | 67.15950 | 8075 ft | 280 kts | 59° |
| 2026-05-09 15:56 | 24.75876 | 67.17765 | 7660 ft | 274 kts | 59° |
| 2026-05-09 15:56 | 24.76849 | 67.19566 | 7144 ft | 276 kts | 59° |
| 2026-05-09 15:57 | 24.77826 | 67.21375 | 6793 ft | 277 kts | 59° |
| 2026-05-09 15:57 | 24.78816 | 67.23211 | 6466 ft | 277 kts | 60° |
| 2026-05-09 15:57 | 24.79788 | 67.25012 | 6163 ft | 276 kts | 59° |
| 2026-05-09 15:57 | 24.80767 | 67.26829 | 6067 ft | 275 kts | 59° |
| 2026-05-09 15:58 | 24.81751 | 67.28653 | 6045 ft | 275 kts | 59° |
| 2026-05-09 15:58 | 24.82717 | 67.30446 | 5743 ft | 275 kts | 59° |
| 2026-05-09 15:58 | 24.83698 | 67.32269 | 5385 ft | 276 kts | 59° |
| 2026-05-09 15:58 | 24.84679 | 67.34088 | 5107 ft | 275 kts | 59° |
| 2026-05-09 15:59 | 24.85656 | 67.35905 | 4867 ft | 272 kts | 59° |
| 2026-05-09 15:59 | 24.86669 | 67.37674 | 4971 ft | 276 kts | 49° |
| 2026-05-09 15:59 | 24.88143 | 67.38946 | 4861 ft | 265 kts | 23° |
| 2026-05-09 15:59 | 24.89902 | 67.39334 | 4599 ft | 255 kts | 355° |
| 2026-05-09 16:00 | 24.91614 | 67.38974 | 4300 ft | 251 kts | 342° |
| 2026-05-09 16:00 | 24.92172 | 67.38804 | 4205 ft | 250 kts | 341° |
| 2026-05-09 16:00 | 24.94490 | 67.37129 | 3652 ft | 239 kts | 300° |
| 2026-05-09 16:00 | 24.94996 | 67.35442 | 3369 ft | 232 kts | 275° |
| 2026-05-09 16:01 | 24.94947 | 67.33672 | 3059 ft | 230 kts | 261° |
| 2026-05-09 16:01 | 24.94603 | 67.31969 | 2752 ft | 223 kts | 256° |
| 2026-05-09 16:01 | 24.94337 | 67.30915 | 2561 ft | 203 kts | 255° |
| 2026-05-09 16:01 | 24.93836 | 67.29062 | 2240 ft | 180 kts | 255° |
| 2026-05-09 16:02 | 24.93501 | 67.27771 | 2004 ft | 166 kts | 255° |
| 2026-05-09 16:02 | 24.92943 | 67.25584 | 1601 ft | 135 kts | 255° |
| 2026-05-09 16:02 | 24.92696 | 67.24609 | 1430 ft | 130 kts | 255° |
| 2026-05-09 16:03 | 24.92452 | 67.23651 | 1254 ft | 129 kts | 255° |
| 2026-05-09 16:03 | 24.92209 | 67.22694 | 1077 ft | 129 kts | 255° |
| 2026-05-09 16:03 | 24.91960 | 67.21742 | 896 ft | 130 kts | 253° |
| 2026-05-09 16:03 | 24.91703 | 67.20788 | 739 ft | 131 kts | 254° |
| 2026-05-09 16:04 | 24.91466 | 67.19796 | 542 ft | 134 kts | 255° |
| 2026-05-09 16:04 | 24.91211 | 67.18805 | 362 ft | 135 kts | 254° |
| 2026-05-09 16:04 | 24.90956 | 67.17786 | 180 ft | 137 kts | 254° |
| 2026-05-09 16:04 | 24.90706 | 67.16810 | 95 ft | 119 kts | 255° |
| 2026-05-09 16:05 | 24.90524 | 67.16087 | 91 ft | 71 kts | 253° |
| 2026-05-09 16:05 | 24.90410 | 67.15639 | 89 ft | 54 kts | 254° |
| 2026-05-09 16:05 | 24.90327 | 67.15304 | 88 ft | 46 kts | 255° |
| 2026-05-09 16:05 | 24.90253 | 67.15073 | 86 ft | 13 kts | 241° |
| 2026-05-09 16:06 | 24.90206 | 67.14988 | 85 ft | 13 kts | 230° |
| 2026-05-09 16:06 | 24.90139 | 67.14912 | 85 ft | 14 kts | 223° |
| 2026-05-09 16:06 | 24.90074 | 67.14879 | 85 ft | 7 kts | 173° |
| 2026-05-09 16:06 | 24.90038 | 67.14920 | 85 ft | 8 kts | 98° |
| 2026-05-09 16:07 | 24.90049 | 67.14996 | 85 ft | 10 kts | 75° |
| 2026-05-09 16:07 | 24.90052 | 67.15062 | 85 ft | 6 kts | 132° |
| 2026-05-09 16:07 | 24.89993 | 67.15100 | 85 ft | 11 kts | 177° |
| 2026-05-09 16:07 | 24.89916 | 67.15073 | 85 ft | 10 kts | 187° |
| 2026-05-09 16:08 | 24.89881 | 67.15080 | 85 ft | 0 kts | 151° |
| 2026-05-09 16:08 | 24.89875 | 67.15083 | 85 ft | 1 kts | 151° |
| 2026-05-09 16:08 | 24.89873 | 67.15085 | 85 ft | 0 kts | 151° |